Capitol Logistics 3283




TAPA
V.C. Bird International Airport
Antigua, AG
TJSJ
Luis Munoz Marin International Airport
San Juan, PR

Activity Log

Date Flight Route Aircraft Duration
No Flights Yet

Route Details

Aircraft Information
Primary: Saab 340AF
Backup: Not Available
Route Data
Distance: 291nm
Duration: 1h 41m
Recm'd Route: ANU G633 GABAR COY RTE4 VEDAS SJU
Origin Wx: TAPA 191100Z 09010KT 050V140 9999 SCT018 27/24 Q1018 NOSIG
Dest. Wx: TJSJ 191156Z 10009KT 9SM FEW033 SCT080 SCT120 28/23 A3011 RMK AO2 SLP196 HZ ALQDS 60000 T02780228 10278 20256 53012
Notes: